sensor_id;sensor_type;location;lat;lon;timestamp;P1;durP1;ratioP1;P2;durP2;ratioP2
78053;SDS011;67726;45.636;11.752;2024-01-16T00:01:57;115.38;;;47.50;;
78053;SDS011;67726;45.636;11.752;2024-01-16T00:04:23;115.03;;;47.25;;
78053;SDS011;67726;45.636;11.752;2024-01-16T00:06:51;108.73;;;47.83;;
78053;SDS011;67726;45.636;11.752;2024-01-16T00:09:17;114.32;;;47.33;;
78053;SDS011;67726;45.636;11.752;2024-01-16T00:11:43;106.47;;;45.65;;
78053;SDS011;67726;45.636;11.752;2024-01-16T00:14:10;110.32;;;47.92;;
78053;SDS011;67726;45.636;11.752;2024-01-16T00:16:45;109.60;;;48.60;;
78053;SDS011;67726;45.636;11.752;2024-01-16T00:19:12;113.87;;;46.33;;
78053;SDS011;67726;45.636;11.752;2024-01-16T00:21:42;99.35;;;43.72;;
78053;SDS011;67726;45.636;11.752;2024-01-16T00:24:10;104.88;;;44.05;;
78053;SDS011;67726;45.636;11.752;2024-01-16T00:26:36;108.07;;;46.28;;
78053;SDS011;67726;45.636;11.752;2024-01-16T00:29:02;105.82;;;45.72;;
78053;SDS011;67726;45.636;11.752;2024-01-16T00:31:28;101.90;;;43.53;;
78053;SDS011;67726;45.636;11.752;2024-01-16T00:33:54;100.65;;;44.60;;
78053;SDS011;67726;45.636;11.752;2024-01-16T00:36:20;102.43;;;43.17;;
78053;SDS011;67726;45.636;11.752;2024-01-16T00:38:46;96.80;;;43.95;;
78053;SDS011;67726;45.636;11.752;2024-01-16T00:41:12;105.75;;;46.00;;
78053;SDS011;67726;45.636;11.752;2024-01-16T00:43:45;106.53;;;44.67;;
78053;SDS011;67726;45.636;11.752;2024-01-16T00:46:11;103.95;;;42.70;;
78053;SDS011;67726;45.636;11.752;2024-01-16T00:48:37;111.38;;;46.00;;
78053;SDS011;67726;45.636;11.752;2024-01-16T00:51:03;108.70;;;44.35;;
78053;SDS011;67726;45.636;11.752;2024-01-16T00:53:29;104.85;;;43.78;;
78053;SDS011;67726;45.636;11.752;2024-01-16T00:55:55;100.57;;;42.03;;
78053;SDS011;67726;45.636;11.752;2024-01-16T00:58:22;100.03;;;44.22;;
78053;SDS011;67726;45.636;11.752;2024-01-16T01:00:48;90.97;;;43.15;;
78053;SDS011;67726;45.636;11.752;2024-01-16T01:03:14;98.60;;;42.22;;
78053;SDS011;67726;45.636;11.752;2024-01-16T01:05:40;99.78;;;43.63;;
78053;SDS011;67726;45.636;11.752;2024-01-16T01:08:06;91.00;;;40.07;;
78053;SDS011;67726;45.636;11.752;2024-01-16T01:10:32;100.70;;;43.92;;
78053;SDS011;67726;45.636;11.752;2024-01-16T01:12:58;98.35;;;43.20;;
78053;SDS011;67726;45.636;11.752;2024-01-16T01:15:25;96.43;;;41.55;;
78053;SDS011;67726;45.636;11.752;2024-01-16T01:17:51;95.80;;;43.10;;
78053;SDS011;67726;45.636;11.752;2024-01-16T01:20:18;97.43;;;41.00;;
78053;SDS011;67726;45.636;11.752;2024-01-16T01:22:45;102.00;;;43.38;;
78053;SDS011;67726;45.636;11.752;2024-01-16T01:25:11;95.20;;;42.63;;
78053;SDS011;67726;45.636;11.752;2024-01-16T01:27:40;102.38;;;43.55;;
78053;SDS011;67726;45.636;11.752;2024-01-16T01:30:07;98.35;;;42.40;;
78053;SDS011;67726;45.636;11.752;2024-01-16T01:32:36;101.13;;;42.70;;
78053;SDS011;67726;45.636;11.752;2024-01-16T01:35:03;98.07;;;43.45;;
78053;SDS011;67726;45.636;11.752;2024-01-16T01:37:29;88.65;;;38.90;;
78053;SDS011;67726;45.636;11.752;2024-01-16T01:39:55;100.43;;;39.08;;
78053;SDS011;67726;45.636;11.752;2024-01-16T01:42:21;86.57;;;40.35;;
78053;SDS011;67726;45.636;11.752;2024-01-16T01:44:47;99.03;;;41.07;;
78053;SDS011;67726;45.636;11.752;2024-01-16T01:47:13;102.05;;;42.88;;
78053;SDS011;67726;45.636;11.752;2024-01-16T01:49:39;97.95;;;41.45;;
78053;SDS011;67726;45.636;11.752;2024-01-16T01:52:06;107.88;;;43.33;;
78053;SDS011;67726;45.636;11.752;2024-01-16T01:54:32;89.25;;;38.00;;
78053;SDS011;67726;45.636;11.752;2024-01-16T01:57:00;96.70;;;39.10;;
78053;SDS011;67726;45.636;11.752;2024-01-16T01:59:26;101.32;;;40.67;;
78053;SDS011;67726;45.636;11.752;2024-01-16T02:01:53;97.63;;;41.10;;
78053;SDS011;67726;45.636;11.752;2024-01-16T02:04:19;102.32;;;40.80;;
78053;SDS011;67726;45.636;11.752;2024-01-16T02:06:45;84.22;;;36.65;;
78053;SDS011;67726;45.636;11.752;2024-01-16T02:09:12;89.93;;;39.13;;
78053;SDS011;67726;45.636;11.752;2024-01-16T02:11:39;91.55;;;39.05;;
78053;SDS011;67726;45.636;11.752;2024-01-16T02:14:05;84.85;;;39.05;;
78053;SDS011;67726;45.636;11.752;2024-01-16T02:16:35;84.03;;;37.13;;
78053;SDS011;67726;45.636;11.752;2024-01-16T02:19:02;82.45;;;38.92;;
78053;SDS011;67726;45.636;11.752;2024-01-16T02:21:28;82.10;;;35.77;;
78053;SDS011;67726;45.636;11.752;2024-01-16T02:23:57;82.40;;;33.78;;
78053;SDS011;67726;45.636;11.752;2024-01-16T02:26:23;70.63;;;31.10;;
78053;SDS011;67726;45.636;11.752;2024-01-16T02:28:49;62.72;;;28.50;;
78053;SDS011;67726;45.636;11.752;2024-01-16T02:31:16;73.05;;;30.67;;
78053;SDS011;67726;45.636;11.752;2024-01-16T02:33:43;72.10;;;29.77;;
78053;SDS011;67726;45.636;11.752;2024-01-16T02:36:09;69.88;;;31.33;;
78053;SDS011;67726;45.636;11.752;2024-01-16T02:38:35;75.38;;;32.28;;
78053;SDS011;67726;45.636;11.752;2024-01-16T02:41:01;75.80;;;34.95;;
78053;SDS011;67726;45.636;11.752;2024-01-16T02:43:27;84.05;;;35.60;;
78053;SDS011;67726;45.636;11.752;2024-01-16T02:45:53;79.27;;;36.27;;
78053;SDS011;67726;45.636;11.752;2024-01-16T02:48:19;79.65;;;36.13;;
78053;SDS011;67726;45.636;11.752;2024-01-16T02:50:45;83.45;;;36.38;;
78053;SDS011;67726;45.636;11.752;2024-01-16T02:53:11;88.13;;;36.20;;
78053;SDS011;67726;45.636;11.752;2024-01-16T02:55:37;80.05;;;37.13;;
78053;SDS011;67726;45.636;11.752;2024-01-16T02:58:03;77.50;;;36.07;;
78053;SDS011;67726;45.636;11.752;2024-01-16T03:00:29;85.47;;;36.45;;
78053;SDS011;67726;45.636;11.752;2024-01-16T03:02:55;93.20;;;38.53;;
78053;SDS011;67726;45.636;11.752;2024-01-16T03:05:21;83.10;;;36.17;;
78053;SDS011;67726;45.636;11.752;2024-01-16T03:07:47;85.53;;;36.65;;
78053;SDS011;67726;45.636;11.752;2024-01-16T03:10:13;82.60;;;36.20;;
78053;SDS011;67726;45.636;11.752;2024-01-16T03:12:39;86.45;;;37.17;;
78053;SDS011;67726;45.636;11.752;2024-01-16T03:15:05;88.03;;;38.17;;
78053;SDS011;67726;45.636;11.752;2024-01-16T03:17:31;84.25;;;36.55;;
78053;SDS011;67726;45.636;11.752;2024-01-16T03:19:58;77.70;;;35.95;;
78053;SDS011;67726;45.636;11.752;2024-01-16T03:22:24;76.57;;;34.40;;
78053;SDS011;67726;45.636;11.752;2024-01-16T03:24:50;77.97;;;36.50;;
78053;SDS011;67726;45.636;11.752;2024-01-16T03:27:16;72.97;;;34.00;;
78053;SDS011;67726;45.636;11.752;2024-01-16T03:29:43;85.65;;;37.78;;
78053;SDS011;67726;45.636;11.752;2024-01-16T03:32:09;81.20;;;38.92;;
78053;SDS011;67726;45.636;11.752;2024-01-16T03:34:35;84.93;;;37.50;;
78053;SDS011;67726;45.636;11.752;2024-01-16T03:37:01;83.10;;;36.80;;
78053;SDS011;67726;45.636;11.752;2024-01-16T03:39:27;79.25;;;34.13;;
78053;SDS011;67726;45.636;11.752;2024-01-16T03:41:53;79.25;;;34.15;;
78053;SDS011;67726;45.636;11.752;2024-01-16T03:44:19;79.13;;;33.85;;
78053;SDS011;67726;45.636;11.752;2024-01-16T03:46:45;75.47;;;33.03;;
78053;SDS011;67726;45.636;11.752;2024-01-16T03:49:11;75.50;;;32.65;;
78053;SDS011;67726;45.636;11.752;2024-01-16T03:51:37;76.85;;;34.15;;
78053;SDS011;67726;45.636;11.752;2024-01-16T03:54:03;74.30;;;33.05;;
78053;SDS011;67726;45.636;11.752;2024-01-16T03:56:29;80.72;;;34.60;;
78053;SDS011;67726;45.636;11.752;2024-01-16T03:58:55;78.23;;;33.10;;
78053;SDS011;67726;45.636;11.752;2024-01-16T04:01:31;75.68;;;32.40;;
78053;SDS011;67726;45.636;11.752;2024-01-16T04:03:57;69.97;;;33.10;;
78053;SDS011;67726;45.636;11.752;2024-01-16T04:06:23;84.45;;;34.50;;
78053;SDS011;67726;45.636;11.752;2024-01-16T04:08:49;84.65;;;34.78;;
78053;SDS011;67726;45.636;11.752;2024-01-16T04:11:15;71.50;;;32.60;;
78053;SDS011;67726;45.636;11.752;2024-01-16T04:13:41;74.22;;;32.10;;
78053;SDS011;67726;45.636;11.752;2024-01-16T04:16:07;70.47;;;33.60;;
78053;SDS011;67726;45.636;11.752;2024-01-16T04:18:36;78.78;;;33.33;;
78053;SDS011;67726;45.636;11.752;2024-01-16T04:21:03;78.82;;;31.67;;
78053;SDS011;67726;45.636;11.752;2024-01-16T04:23:29;64.40;;;29.83;;
78053;SDS011;67726;45.636;11.752;2024-01-16T04:25:55;65.28;;;30.63;;
78053;SDS011;67726;45.636;11.752;2024-01-16T04:28:21;70.50;;;29.63;;
78053;SDS011;67726;45.636;11.752;2024-01-16T04:30:47;66.53;;;30.45;;
78053;SDS011;67726;45.636;11.752;2024-01-16T04:33:13;66.05;;;29.80;;
78053;SDS011;67726;45.636;11.752;2024-01-16T04:35:39;63.03;;;28.17;;
78053;SDS011;67726;45.636;11.752;2024-01-16T04:38:05;59.15;;;26.02;;
78053;SDS011;67726;45.636;11.752;2024-01-16T04:40:32;67.88;;;28.42;;
78053;SDS011;67726;45.636;11.752;2024-01-16T04:42:59;66.88;;;28.35;;
78053;SDS011;67726;45.636;11.752;2024-01-16T04:45:25;66.95;;;28.05;;
78053;SDS011;67726;45.636;11.752;2024-01-16T04:47:51;64.20;;;29.03;;
78053;SDS011;67726;45.636;11.752;2024-01-16T04:50:17;63.92;;;29.17;;
78053;SDS011;67726;45.636;11.752;2024-01-16T04:52:43;57.75;;;24.95;;
78053;SDS011;67726;45.636;11.752;2024-01-16T04:55:10;59.92;;;24.88;;
78053;SDS011;67726;45.636;11.752;2024-01-16T04:57:36;60.33;;;24.35;;
78053;SDS011;67726;45.636;11.752;2024-01-16T05:00:02;55.70;;;24.40;;
78053;SDS011;67726;45.636;11.752;2024-01-16T05:02:32;52.00;;;23.33;;
78053;SDS011;67726;45.636;11.752;2024-01-16T05:04:59;50.80;;;22.40;;
78053;SDS011;67726;45.636;11.752;2024-01-16T05:07:25;52.92;;;22.45;;
78053;SDS011;67726;45.636;11.752;2024-01-16T05:09:51;51.97;;;23.05;;
78053;SDS011;67726;45.636;11.752;2024-01-16T05:12:18;47.80;;;21.37;;
78053;SDS011;67726;45.636;11.752;2024-01-16T05:14:44;43.65;;;20.70;;
78053;SDS011;67726;45.636;11.752;2024-01-16T05:17:10;44.05;;;20.48;;
78053;SDS011;67726;45.636;11.752;2024-01-16T05:19:36;41.63;;;18.50;;
78053;SDS011;67726;45.636;11.752;2024-01-16T05:22:03;44.15;;;18.10;;
78053;SDS011;67726;45.636;11.752;2024-01-16T05:24:29;39.83;;;18.87;;
78053;SDS011;67726;45.636;11.752;2024-01-16T05:26:55;40.85;;;17.38;;
78053;SDS011;67726;45.636;11.752;2024-01-16T05:29:21;33.45;;;16.40;;
78053;SDS011;67726;45.636;11.752;2024-01-16T05:31:47;37.63;;;16.23;;
78053;SDS011;67726;45.636;11.752;2024-01-16T05:34:13;34.75;;;15.20;;
78053;SDS011;67726;45.636;11.752;2024-01-16T05:36:40;25.90;;;12.53;;
78053;SDS011;67726;45.636;11.752;2024-01-16T05:39:07;30.45;;;12.32;;
78053;SDS011;67726;45.636;11.752;2024-01-16T05:41:34;28.98;;;11.57;;
78053;SDS011;67726;45.636;11.752;2024-01-16T05:44:00;24.58;;;11.93;;
78053;SDS011;67726;45.636;11.752;2024-01-16T05:46:30;24.65;;;11.48;;
78053;SDS011;67726;45.636;11.752;2024-01-16T05:48:57;23.80;;;11.07;;
78053;SDS011;67726;45.636;11.752;2024-01-16T05:51:23;25.83;;;11.75;;
78053;SDS011;67726;45.636;11.752;2024-01-16T05:53:49;21.73;;;10.27;;
78053;SDS011;67726;45.636;11.752;2024-01-16T05:56:15;22.85;;;10.88;;
78053;SDS011;67726;45.636;11.752;2024-01-16T05:58:41;23.13;;;10.70;;
78053;SDS011;67726;45.636;11.752;2024-01-16T06:01:07;23.87;;;11.77;;
78053;SDS011;67726;45.636;11.752;2024-01-16T06:03:33;25.48;;;10.85;;
78053;SDS011;67726;45.636;11.752;2024-01-16T06:05:59;22.80;;;10.40;;
78053;SDS011;67726;45.636;11.752;2024-01-16T06:08:25;20.25;;;10.18;;
78053;SDS011;67726;45.636;11.752;2024-01-16T06:10:51;21.92;;;10.93;;
78053;SDS011;67726;45.636;11.752;2024-01-16T06:13:18;24.27;;;10.87;;
78053;SDS011;67726;45.636;11.752;2024-01-16T06:15:44;20.85;;;10.25;;
78053;SDS011;67726;45.636;11.752;2024-01-16T06:18:10;24.90;;;11.77;;
78053;SDS011;67726;45.636;11.752;2024-01-16T06:20:36;31.40;;;14.10;;
78053;SDS011;67726;45.636;11.752;2024-01-16T06:23:02;31.95;;;13.02;;
78053;SDS011;67726;45.636;11.752;2024-01-16T06:25:29;27.43;;;13.37;;
78053;SDS011;67726;45.636;11.752;2024-01-16T06:27:55;24.75;;;12.15;;
78053;SDS011;67726;45.636;11.752;2024-01-16T06:30:21;23.65;;;10.82;;
78053;SDS011;67726;45.636;11.752;2024-01-16T06:32:48;26.08;;;11.52;;
78053;SDS011;67726;45.636;11.752;2024-01-16T06:35:15;26.95;;;11.27;;
78053;SDS011;67726;45.636;11.752;2024-01-16T06:37:42;28.47;;;12.40;;
78053;SDS011;67726;45.636;11.752;2024-01-16T06:40:08;25.52;;;13.18;;
78053;SDS011;67726;45.636;11.752;2024-01-16T06:42:34;28.67;;;12.77;;
78053;SDS011;67726;45.636;11.752;2024-01-16T06:45:03;32.95;;;13.18;;
78053;SDS011;67726;45.636;11.752;2024-01-16T06:47:30;27.95;;;13.07;;
78053;SDS011;67726;45.636;11.752;2024-01-16T06:49:56;28.80;;;12.77;;
78053;SDS011;67726;45.636;11.752;2024-01-16T06:52:22;27.40;;;12.57;;
78053;SDS011;67726;45.636;11.752;2024-01-16T06:54:49;28.38;;;12.73;;
78053;SDS011;67726;45.636;11.752;2024-01-16T06:57:15;27.50;;;12.77;;
78053;SDS011;67726;45.636;11.752;2024-01-16T06:59:42;25.88;;;12.68;;
78053;SDS011;67726;45.636;11.752;2024-01-16T07:02:08;27.90;;;14.97;;
78053;SDS011;67726;45.636;11.752;2024-01-16T07:04:35;36.17;;;16.15;;
78053;SDS011;67726;45.636;11.752;2024-01-16T07:07:01;31.80;;;15.23;;
78053;SDS011;67726;45.636;11.752;2024-01-16T07:09:28;29.60;;;15.15;;
78053;SDS011;67726;45.636;11.752;2024-01-16T07:11:54;31.73;;;14.68;;
78053;SDS011;67726;45.636;11.752;2024-01-16T07:14:20;41.13;;;16.97;;
78053;SDS011;67726;45.636;11.752;2024-01-16T07:16:46;42.33;;;18.20;;
78053;SDS011;67726;45.636;11.752;2024-01-16T07:19:12;41.60;;;16.95;;
78053;SDS011;67726;45.636;11.752;2024-01-16T07:21:38;39.10;;;17.30;;
78053;SDS011;67726;45.636;11.752;2024-01-16T07:24:04;41.53;;;17.95;;
78053;SDS011;67726;45.636;11.752;2024-01-16T07:26:30;32.77;;;16.37;;
78053;SDS011;67726;45.636;11.752;2024-01-16T07:28:56;37.25;;;17.48;;
78053;SDS011;67726;45.636;11.752;2024-01-16T07:31:23;40.40;;;17.77;;
78053;SDS011;67726;45.636;11.752;2024-01-16T07:33:49;36.60;;;17.13;;
78053;SDS011;67726;45.636;11.752;2024-01-16T07:36:15;41.47;;;17.02;;
78053;SDS011;67726;45.636;11.752;2024-01-16T07:38:41;37.33;;;16.70;;
78053;SDS011;67726;45.636;11.752;2024-01-16T07:41:08;31.50;;;15.30;;
78053;SDS011;67726;45.636;11.752;2024-01-16T07:43:34;34.40;;;15.00;;
78053;SDS011;67726;45.636;11.752;2024-01-16T07:46:00;25.60;;;13.18;;
78053;SDS011;67726;45.636;11.752;2024-01-16T07:48:27;28.50;;;13.65;;
78053;SDS011;67726;45.636;11.752;2024-01-16T07:50:54;26.90;;;13.07;;
78053;SDS011;67726;45.636;11.752;2024-01-16T07:53:20;27.65;;;13.20;;
78053;SDS011;67726;45.636;11.752;2024-01-16T07:55:46;25.10;;;13.25;;
78053;SDS011;67726;45.636;11.752;2024-01-16T07:58:12;27.85;;;14.27;;
78053;SDS011;67726;45.636;11.752;2024-01-16T08:00:38;34.13;;;15.57;;
78053;SDS011;67726;45.636;11.752;2024-01-16T08:03:07;25.00;;;14.10;;
78053;SDS011;67726;45.636;11.752;2024-01-16T08:05:33;24.55;;;14.85;;
78053;SDS011;67726;45.636;11.752;2024-01-16T08:07:59;32.83;;;15.30;;
78053;SDS011;67726;45.636;11.752;2024-01-16T08:10:25;34.60;;;15.23;;
78053;SDS011;67726;45.636;11.752;2024-01-16T08:12:51;29.52;;;14.15;;
78053;SDS011;67726;45.636;11.752;2024-01-16T08:15:17;24.07;;;14.43;;
78053;SDS011;67726;45.636;11.752;2024-01-16T08:17:43;26.58;;;14.25;;
78053;SDS011;67726;45.636;11.752;2024-01-16T08:20:09;25.73;;;13.05;;
78053;SDS011;67726;45.636;11.752;2024-01-16T08:22:36;22.45;;;12.80;;
78053;SDS011;67726;45.636;11.752;2024-01-16T08:25:02;24.98;;;13.10;;
78053;SDS011;67726;45.636;11.752;2024-01-16T08:27:30;23.13;;;12.60;;
78053;SDS011;67726;45.636;11.752;2024-01-16T08:29:56;26.40;;;12.23;;
78053;SDS011;67726;45.636;11.752;2024-01-16T08:32:22;26.17;;;13.68;;
78053;SDS011;67726;45.636;11.752;2024-01-16T08:34:48;35.97;;;15.07;;
78053;SDS011;67726;45.636;11.752;2024-01-16T08:37:14;23.60;;;13.48;;
78053;SDS011;67726;45.636;11.752;2024-01-16T08:39:40;20.47;;;11.20;;
78053;SDS011;67726;45.636;11.752;2024-01-16T08:42:06;19.58;;;10.88;;
78053;SDS011;67726;45.636;11.752;2024-01-16T08:44:36;17.80;;;10.10;;
78053;SDS011;67726;45.636;11.752;2024-01-16T08:47:02;19.70;;;11.18;;
78053;SDS011;67726;45.636;11.752;2024-01-16T08:49:31;22.35;;;10.70;;
78053;SDS011;67726;45.636;11.752;2024-01-16T08:51:57;19.77;;;9.93;;
78053;SDS011;67726;45.636;11.752;2024-01-16T08:54:23;22.38;;;10.45;;
78053;SDS011;67726;45.636;11.752;2024-01-16T08:56:51;22.35;;;11.02;;
78053;SDS011;67726;45.636;11.752;2024-01-16T08:59:17;18.05;;;10.27;;
78053;SDS011;67726;45.636;11.752;2024-01-16T09:01:43;18.75;;;10.98;;
78053;SDS011;67726;45.636;11.752;2024-01-16T09:04:09;20.47;;;10.90;;
78053;SDS011;67726;45.636;11.752;2024-01-16T09:06:35;18.40;;;10.35;;
78053;SDS011;67726;45.636;11.752;2024-01-16T09:09:01;16.35;;;9.35;;
78053;SDS011;67726;45.636;11.752;2024-01-16T09:11:29;19.30;;;9.82;;
78053;SDS011;67726;45.636;11.752;2024-01-16T09:13:55;17.63;;;9.73;;
78053;SDS011;67726;45.636;11.752;2024-01-16T09:16:21;18.47;;;9.83;;
78053;SDS011;67726;45.636;11.752;2024-01-16T09:18:47;17.40;;;9.73;;
78053;SDS011;67726;45.636;11.752;2024-01-16T09:21:14;18.48;;;10.63;;
78053;SDS011;67726;45.636;11.752;2024-01-16T09:23:40;17.42;;;9.95;;
78053;SDS011;67726;45.636;11.752;2024-01-16T09:26:06;19.67;;;9.95;;
78053;SDS011;67726;45.636;11.752;2024-01-16T09:28:32;17.00;;;9.97;;
78053;SDS011;67726;45.636;11.752;2024-01-16T09:30:58;19.45;;;10.80;;
78053;SDS011;67726;45.636;11.752;2024-01-16T09:33:24;16.42;;;10.10;;
78053;SDS011;67726;45.636;11.752;2024-01-16T09:35:50;19.80;;;11.27;;
78053;SDS011;67726;45.636;11.752;2024-01-16T09:38:16;20.58;;;11.73;;
78053;SDS011;67726;45.636;11.752;2024-01-16T09:40:43;18.10;;;11.37;;
78053;SDS011;67726;45.636;11.752;2024-01-16T09:43:10;21.45;;;10.68;;
78053;SDS011;67726;45.636;11.752;2024-01-16T09:45:37;22.17;;;11.43;;
78053;SDS011;67726;45.636;11.752;2024-01-16T09:48:03;20.50;;;10.73;;
78053;SDS011;67726;45.636;11.752;2024-01-16T09:50:30;20.45;;;11.85;;
78053;SDS011;67726;45.636;11.752;2024-01-16T09:52:56;19.83;;;11.63;;
78053;SDS011;67726;45.636;11.752;2024-01-16T09:55:23;19.67;;;11.82;;
78053;SDS011;67726;45.636;11.752;2024-01-16T09:57:52;21.08;;;11.93;;
78053;SDS011;67726;45.636;11.752;2024-01-16T10:00:19;22.27;;;12.18;;
78053;SDS011;67726;45.636;11.752;2024-01-16T10:02:45;20.25;;;11.60;;
78053;SDS011;67726;45.636;11.752;2024-01-16T10:05:13;20.57;;;11.20;;
78053;SDS011;67726;45.636;11.752;2024-01-16T10:07:40;19.15;;;10.30;;
78053;SDS011;67726;45.636;11.752;2024-01-16T10:10:09;19.85;;;10.52;;
78053;SDS011;67726;45.636;11.752;2024-01-16T10:12:39;21.13;;;12.13;;
78053;SDS011;67726;45.636;11.752;2024-01-16T10:15:05;17.85;;;10.55;;
78053;SDS011;67726;45.636;11.752;2024-01-16T10:17:36;19.70;;;10.93;;
78053;SDS011;67726;45.636;11.752;2024-01-16T10:20:02;17.02;;;9.77;;
78053;SDS011;67726;45.636;11.752;2024-01-16T10:22:30;16.42;;;9.55;;
78053;SDS011;67726;45.636;11.752;2024-01-16T10:25:05;18.52;;;10.07;;
78053;SDS011;67726;45.636;11.752;2024-01-16T10:27:32;16.70;;;8.93;;
78053;SDS011;67726;45.636;11.752;2024-01-16T10:29:59;15.27;;;9.93;;
78053;SDS011;67726;45.636;11.752;2024-01-16T10:32:28;16.48;;;9.48;;
78053;SDS011;67726;45.636;11.752;2024-01-16T10:35:01;14.52;;;8.32;;
78053;SDS011;67726;45.636;11.752;2024-01-16T10:37:29;14.25;;;7.50;;
78053;SDS011;67726;45.636;11.752;2024-01-16T10:39:55;14.57;;;7.75;;
78053;SDS011;67726;45.636;11.752;2024-01-16T10:42:21;11.50;;;6.90;;
78053;SDS011;67726;45.636;11.752;2024-01-16T10:44:53;12.35;;;6.53;;
78053;SDS011;67726;45.636;11.752;2024-01-16T10:47:21;13.00;;;7.50;;
78053;SDS011;67726;45.636;11.752;2024-01-16T10:49:47;14.80;;;8.18;;
78053;SDS011;67726;45.636;11.752;2024-01-16T10:52:13;13.18;;;7.03;;
78053;SDS011;67726;45.636;11.752;2024-01-16T10:54:41;15.23;;;8.27;;
78053;SDS011;67726;45.636;11.752;2024-01-16T10:57:09;13.57;;;7.93;;
78053;SDS011;67726;45.636;11.752;2024-01-16T11:02:20;20.25;;;8.23;;
78053;SDS011;67726;45.636;11.752;2024-01-16T11:04:49;17.75;;;8.70;;
78053;SDS011;67726;45.636;11.752;2024-01-16T11:07:16;15.93;;;7.87;;
78053;SDS011;67726;45.636;11.752;2024-01-16T11:09:42;13.18;;;6.75;;
78053;SDS011;67726;45.636;11.752;2024-01-16T11:12:09;16.50;;;8.43;;
78053;SDS011;67726;45.636;11.752;2024-01-16T11:14:37;14.75;;;7.20;;
78053;SDS011;67726;45.636;11.752;2024-01-16T11:17:04;15.88;;;8.20;;
78053;SDS011;67726;45.636;11.752;2024-01-16T11:19:31;15.80;;;7.87;;
78053;SDS011;67726;45.636;11.752;2024-01-16T11:21:58;19.42;;;8.65;;
78053;SDS011;67726;45.636;11.752;2024-01-16T11:24:24;14.63;;;7.50;;
78053;SDS011;67726;45.636;11.752;2024-01-16T11:26:50;15.85;;;7.40;;
78053;SDS011;67726;45.636;11.752;2024-01-16T11:31:51;13.83;;;7.23;;
78053;SDS011;67726;45.636;11.752;2024-01-16T11:34:52;11.93;;;7.15;;
78053;SDS011;67726;45.636;11.752;2024-01-16T11:37:05;14.55;;;8.35;;
78053;SDS011;67726;45.636;11.752;2024-01-16T11:39:31;15.38;;;7.97;;
78053;SDS011;67726;45.636;11.752;2024-01-16T11:41:57;13.35;;;6.57;;
78053;SDS011;67726;45.636;11.752;2024-01-16T11:44:37;13.37;;;7.23;;
78053;SDS011;67726;45.636;11.752;2024-01-16T11:47:03;12.07;;;7.43;;
78053;SDS011;67726;45.636;11.752;2024-01-16T11:49:30;12.82;;;7.32;;
78053;SDS011;67726;45.636;11.752;2024-01-16T11:51:59;14.50;;;7.38;;
78053;SDS011;67726;45.636;11.752;2024-01-16T11:54:25;12.02;;;7.10;;
78053;SDS011;67726;45.636;11.752;2024-01-16T12:02:09;12.73;;;6.28;;
78053;SDS011;67726;45.636;11.752;2024-01-16T12:04:36;11.02;;;6.28;;
78053;SDS011;67726;45.636;11.752;2024-01-16T12:07:02;11.57;;;6.15;;
78053;SDS011;67726;45.636;11.752;2024-01-16T12:09:28;10.47;;;6.20;;
78053;SDS011;67726;45.636;11.752;2024-01-16T12:11:58;12.20;;;6.32;;
78053;SDS011;67726;45.636;11.752;2024-01-16T12:14:26;12.65;;;6.40;;
78053;SDS011;67726;45.636;11.752;2024-01-16T12:16:52;13.02;;;6.63;;
78053;SDS011;67726;45.636;11.752;2024-01-16T12:19:18;13.15;;;6.85;;
78053;SDS011;67726;45.636;11.752;2024-01-16T12:21:44;13.63;;;7.40;;
78053;SDS011;67726;45.636;11.752;2024-01-16T12:24:11;11.75;;;6.40;;
78053;SDS011;67726;45.636;11.752;2024-01-16T12:26:37;10.75;;;5.53;;
78053;SDS011;67726;45.636;11.752;2024-01-16T12:29:07;11.95;;;5.68;;
78053;SDS011;67726;45.636;11.752;2024-01-16T12:31:33;10.82;;;5.13;;
78053;SDS011;67726;45.636;11.752;2024-01-16T12:34:08;10.67;;;5.83;;
78053;SDS011;67726;45.636;11.752;2024-01-16T12:36:35;9.30;;;4.85;;
78053;SDS011;67726;45.636;11.752;2024-01-16T12:39:01;19.20;;;6.50;;
78053;SDS011;67726;45.636;11.752;2024-01-16T12:41:28;12.15;;;5.35;;
78053;SDS011;67726;45.636;11.752;2024-01-16T12:43:56;8.35;;;4.60;;
78053;SDS011;67726;45.636;11.752;2024-01-16T12:46:22;10.50;;;4.83;;
78053;SDS011;67726;45.636;11.752;2024-01-16T12:48:48;8.52;;;4.28;;
78053;SDS011;67726;45.636;11.752;2024-01-16T12:51:20;9.75;;;4.60;;
78053;SDS011;67726;45.636;11.752;2024-01-16T12:53:47;8.55;;;4.25;;
78053;SDS011;67726;45.636;11.752;2024-01-16T12:56:17;11.43;;;4.97;;
78053;SDS011;67726;45.636;11.752;2024-01-16T12:58:43;10.40;;;5.60;;
78053;SDS011;67726;45.636;11.752;2024-01-16T13:01:22;11.27;;;5.25;;
78053;SDS011;67726;45.636;11.752;2024-01-16T13:03:49;11.02;;;4.75;;
78053;SDS011;67726;45.636;11.752;2024-01-16T13:06:19;8.93;;;4.57;;
78053;SDS011;67726;45.636;11.752;2024-01-16T13:08:46;10.43;;;4.88;;
78053;SDS011;67726;45.636;11.752;2024-01-16T13:11:12;9.67;;;5.33;;
78053;SDS011;67726;45.636;11.752;2024-01-16T13:13:44;9.27;;;4.70;;
78053;SDS011;67726;45.636;11.752;2024-01-16T13:16:10;10.38;;;4.53;;
78053;SDS011;67726;45.636;11.752;2024-01-16T13:18:36;10.05;;;5.63;;
78053;SDS011;67726;45.636;11.752;2024-01-16T13:21:02;8.88;;;4.57;;
78053;SDS011;67726;45.636;11.752;2024-01-16T13:23:29;10.37;;;5.33;;
78053;SDS011;67726;45.636;11.752;2024-01-16T13:25:55;10.20;;;5.65;;
78053;SDS011;67726;45.636;11.752;2024-01-16T13:28:24;12.52;;;5.82;;
78053;SDS011;67726;45.636;11.752;2024-01-16T13:30:50;11.50;;;5.97;;
78053;SDS011;67726;45.636;11.752;2024-01-16T13:33:17;10.73;;;5.55;;
78053;SDS011;67726;45.636;11.752;2024-01-16T13:35:44;11.60;;;5.73;;
78053;SDS011;67726;45.636;11.752;2024-01-16T13:38:12;14.75;;;6.38;;
78053;SDS011;67726;45.636;11.752;2024-01-16T13:40:38;12.20;;;6.05;;
78053;SDS011;67726;45.636;11.752;2024-01-16T13:43:04;16.13;;;6.45;;
78053;SDS011;67726;45.636;11.752;2024-01-16T13:45:33;15.35;;;6.72;;
78053;SDS011;67726;45.636;11.752;2024-01-16T13:48:03;15.33;;;6.13;;
78053;SDS011;67726;45.636;11.752;2024-01-16T13:50:30;21.20;;;8.90;;
78053;SDS011;67726;45.636;11.752;2024-01-16T13:52:57;23.98;;;8.85;;
78053;SDS011;67726;45.636;11.752;2024-01-16T13:55:23;23.40;;;10.05;;
78053;SDS011;67726;45.636;11.752;2024-01-16T13:57:49;27.27;;;10.10;;
78053;SDS011;67726;45.636;11.752;2024-01-16T14:00:15;27.13;;;12.67;;
78053;SDS011;67726;45.636;11.752;2024-01-16T14:02:42;24.75;;;11.68;;
78053;SDS011;67726;45.636;11.752;2024-01-16T14:05:15;23.65;;;10.15;;
78053;SDS011;67726;45.636;11.752;2024-01-16T14:07:43;22.08;;;9.90;;
78053;SDS011;67726;45.636;11.752;2024-01-16T14:10:11;19.23;;;8.75;;
78053;SDS011;67726;45.636;11.752;2024-01-16T14:12:40;19.43;;;8.90;;
78053;SDS011;67726;45.636;11.752;2024-01-16T14:15:10;17.15;;;8.23;;
78053;SDS011;67726;45.636;11.752;2024-01-16T14:17:54;19.75;;;9.10;;
78053;SDS011;67726;45.636;11.752;2024-01-16T14:20:21;16.33;;;8.10;;